sensor_id;sensor_type;location;lat;lon;timestamp;pressure;altitude;pressure_sealevel;temperature;humidity
16451;BME280;12243;42.708;23.310;2022-10-16T00:01:07;95672.03;;;9.20;100.00
16451;BME280;12243;42.708;23.310;2022-10-16T00:03:36;95671.13;;;9.21;100.00
16451;BME280;12243;42.708;23.310;2022-10-16T00:06:03;95682.97;;;9.25;100.00
16451;BME280;12243;42.708;23.310;2022-10-16T00:08:31;95682.56;;;9.31;100.00
16451;BME280;12243;42.708;23.310;2022-10-16T00:11:02;95679.22;;;9.29;99.58
16451;BME280;12243;42.708;23.310;2022-10-16T00:13:29;95681.63;;;9.32;99.54
16451;BME280;12243;42.708;23.310;2022-10-16T00:15:57;95682.56;;;9.31;99.69
16451;BME280;12243;42.708;23.310;2022-10-16T00:18:25;95687.44;;;9.23;99.99
16451;BME280;12243;42.708;23.310;2022-10-16T00:20:53;95680.03;;;9.17;100.00
16451;BME280;12243;42.708;23.310;2022-10-16T00:23:21;95687.97;;;9.28;100.00
16451;BME280;12243;42.708;23.310;2022-10-16T00:25:54;95691.69;;;9.24;100.00
16451;BME280;12243;42.708;23.310;2022-10-16T00:28:22;95693.25;;;9.26;100.00
16451;BME280;12243;42.708;23.310;2022-10-16T00:30:49;95698.97;;;9.32;100.00
16451;BME280;12243;42.708;23.310;2022-10-16T00:33:16;95696.47;;;9.30;100.00
16451;BME280;12243;42.708;23.310;2022-10-16T00:35:43;95701.16;;;9.25;100.00
16451;BME280;12243;42.708;23.310;2022-10-16T00:38:11;95704.56;;;9.13;100.00
16451;BME280;12243;42.708;23.310;2022-10-16T00:40:38;95701.25;;;9.11;100.00
16451;BME280;12243;42.708;23.310;2022-10-16T00:43:12;95698.94;;;9.06;100.00
16451;BME280;12243;42.708;23.310;2022-10-16T00:45:39;95698.75;;;8.96;100.00
16451;BME280;12243;42.708;23.310;2022-10-16T00:48:11;95695.19;;;8.97;100.00
16451;BME280;12243;42.708;23.310;2022-10-16T00:50:39;95689.56;;;8.91;100.00
16451;BME280;12243;42.708;23.310;2022-10-16T00:53:09;95688.34;;;8.96;100.00
16451;BME280;12243;42.708;23.310;2022-10-16T00:55:38;95694.16;;;8.87;100.00
16451;BME280;12243;42.708;23.310;2022-10-16T00:58:05;95688.94;;;8.87;100.00
16451;BME280;12243;42.708;23.310;2022-10-16T01:00:32;95696.53;;;8.90;100.00
16451;BME280;12243;42.708;23.310;2022-10-16T01:03:01;95701.00;;;8.88;100.00
16451;BME280;12243;42.708;23.310;2022-10-16T01:05:32;95701.00;;;8.88;100.00
16451;BME280;12243;42.708;23.310;2022-10-16T01:08:06;95700.38;;;8.85;100.00
16451;BME280;12243;42.708;23.310;2022-10-16T01:10:40;95702.53;;;8.78;100.00
16451;BME280;12243;42.708;23.310;2022-10-16T01:13:10;95710.31;;;8.78;100.00
16451;BME280;12243;42.708;23.310;2022-10-16T01:15:42;95701.81;;;8.76;100.00
16451;BME280;12243;42.708;23.310;2022-10-16T01:18:16;95701.25;;;8.71;100.00
16451;BME280;12243;42.708;23.310;2022-10-16T01:20:47;95693.28;;;8.74;100.00
16451;BME280;12243;42.708;23.310;2022-10-16T01:23:37;95699.72;;;8.68;100.00
16451;BME280;12243;42.708;23.310;2022-10-16T01:26:23;95688.59;;;8.66;100.00
16451;BME280;12243;42.708;23.310;2022-10-16T01:28:59;95692.22;;;8.64;100.00
16451;BME280;12243;42.708;23.310;2022-10-16T01:31:31;95686.94;;;8.65;100.00
16451;BME280;12243;42.708;23.310;2022-10-16T01:34:03;95695.56;;;8.66;100.00
16451;BME280;12243;42.708;23.310;2022-10-16T01:36:35;95693.78;;;8.66;100.00
16451;BME280;12243;42.708;23.310;2022-10-16T01:39:04;95694.75;;;8.78;100.00
16451;BME280;12243;42.708;23.310;2022-10-16T01:41:34;95689.03;;;8.73;100.00
16451;BME280;12243;42.708;23.310;2022-10-16T01:44:06;95693.47;;;8.71;100.00
16451;BME280;12243;42.708;23.310;2022-10-16T01:46:37;95696.38;;;8.66;100.00
16451;BME280;12243;42.708;23.310;2022-10-16T01:49:06;95697.06;;;8.55;100.00
16451;BME280;12243;42.708;23.310;2022-10-16T01:51:35;95703.94;;;8.56;100.00
16451;BME280;12243;42.708;23.310;2022-10-16T01:54:05;95709.31;;;8.53;100.00
16451;BME280;12243;42.708;23.310;2022-10-16T01:56:35;95714.44;;;8.68;100.00
16451;BME280;12243;42.708;23.310;2022-10-16T01:59:06;95711.72;;;8.56;100.00
16451;BME280;12243;42.708;23.310;2022-10-16T02:01:38;95706.09;;;8.50;100.00
16451;BME280;12243;42.708;23.310;2022-10-16T02:04:13;95711.06;;;8.53;100.00
16451;BME280;12243;42.708;23.310;2022-10-16T02:06:42;95715.63;;;8.49;100.00
16451;BME280;12243;42.708;23.310;2022-10-16T02:09:09;95717.84;;;8.55;100.00
16451;BME280;12243;42.708;23.310;2022-10-16T02:11:36;95717.22;;;8.65;100.00
16451;BME280;12243;42.708;23.310;2022-10-16T02:14:05;95725.63;;;8.55;100.00
16451;BME280;12243;42.708;23.310;2022-10-16T02:16:34;95726.03;;;8.49;100.00
16451;BME280;12243;42.708;23.310;2022-10-16T02:19:02;95728.09;;;8.44;100.00
16451;BME280;12243;42.708;23.310;2022-10-16T02:21:34;95726.84;;;8.50;100.00
16451;BME280;12243;42.708;23.310;2022-10-16T02:24:10;95732.53;;;8.42;100.00
16451;BME280;12243;42.708;23.310;2022-10-16T02:26:42;95733.66;;;8.38;100.00
16451;BME280;12243;42.708;23.310;2022-10-16T02:29:16;95743.09;;;8.39;100.00
16451;BME280;12243;42.708;23.310;2022-10-16T02:31:46;95743.13;;;8.25;100.00
16451;BME280;12243;42.708;23.310;2022-10-16T02:34:15;95742.00;;;8.29;100.00
16451;BME280;12243;42.708;23.310;2022-10-16T02:36:44;95741.00;;;8.17;100.00
16451;BME280;12243;42.708;23.310;2022-10-16T02:39:14;95740.69;;;8.22;100.00
16451;BME280;12243;42.708;23.310;2022-10-16T02:41:41;95731.78;;;7.99;100.00
16451;BME280;12243;42.708;23.310;2022-10-16T02:44:09;95742.25;;;7.83;100.00
16451;BME280;12243;42.708;23.310;2022-10-16T02:46:37;95745.31;;;7.75;100.00
16451;BME280;12243;42.708;23.310;2022-10-16T02:49:04;95753.81;;;7.77;100.00
16451;BME280;12243;42.708;23.310;2022-10-16T02:51:31;95745.78;;;7.82;100.00
16451;BME280;12243;42.708;23.310;2022-10-16T02:53:58;95754.09;;;7.73;100.00
16451;BME280;12243;42.708;23.310;2022-10-16T02:56:25;95756.22;;;7.66;100.00
16451;BME280;12243;42.708;23.310;2022-10-16T02:58:52;95755.38;;;7.66;100.00
16451;BME280;12243;42.708;23.310;2022-10-16T03:01:19;95767.34;;;7.54;100.00
16451;BME280;12243;42.708;23.310;2022-10-16T03:03:47;95762.63;;;7.46;100.00
16451;BME280;12243;42.708;23.310;2022-10-16T03:06:14;95756.31;;;7.50;100.00
16451;BME280;12243;42.708;23.310;2022-10-16T03:08:40;95759.56;;;7.54;100.00
16451;BME280;12243;42.708;23.310;2022-10-16T03:11:07;95763.91;;;7.53;100.00
16451;BME280;12243;42.708;23.310;2022-10-16T03:13:34;95763.16;;;7.66;100.00
16451;BME280;12243;42.708;23.310;2022-10-16T03:16:01;95760.94;;;7.59;100.00
16451;BME280;12243;42.708;23.310;2022-10-16T03:18:28;95765.41;;;7.57;100.00
16451;BME280;12243;42.708;23.310;2022-10-16T03:20:56;95770.94;;;7.51;100.00
16451;BME280;12243;42.708;23.310;2022-10-16T03:23:23;95768.69;;;7.45;100.00
16451;BME280;12243;42.708;23.310;2022-10-16T03:25:50;95774.47;;;7.50;100.00
16451;BME280;12243;42.708;23.310;2022-10-16T03:28:16;95770.28;;;7.48;100.00
16451;BME280;12243;42.708;23.310;2022-10-16T03:30:43;95776.41;;;7.47;100.00
16451;BME280;12243;42.708;23.310;2022-10-16T03:33:10;95772.22;;;7.44;100.00
16451;BME280;12243;42.708;23.310;2022-10-16T03:35:37;95770.19;;;7.49;100.00
16451;BME280;12243;42.708;23.310;2022-10-16T03:38:05;95769.28;;;7.50;100.00
16451;BME280;12243;42.708;23.310;2022-10-16T03:40:32;95775.19;;;7.52;100.00
16451;BME280;12243;42.708;23.310;2022-10-16T03:42:59;95775.66;;;7.59;100.00
16451;BME280;12243;42.708;23.310;2022-10-16T03:45:26;95771.47;;;7.56;100.00
16451;BME280;12243;42.708;23.310;2022-10-16T03:47:53;95770.09;;;7.51;100.00
16451;BME280;12243;42.708;23.310;2022-10-16T03:50:20;95762.03;;;7.41;100.00
16451;BME280;12243;42.708;23.310;2022-10-16T03:52:47;95764.34;;;7.46;100.00
16451;BME280;12243;42.708;23.310;2022-10-16T03:55:15;95767.22;;;7.41;100.00
16451;BME280;12243;42.708;23.310;2022-10-16T03:57:42;95757.78;;;7.40;100.00
16451;BME280;12243;42.708;23.310;2022-10-16T04:00:10;95766.22;;;7.44;100.00
16451;BME280;12243;42.708;23.310;2022-10-16T04:02:37;95762.03;;;7.41;100.00
16451;BME280;12243;42.708;23.310;2022-10-16T04:05:05;95765.38;;;7.43;100.00
16451;BME280;12243;42.708;23.310;2022-10-16T04:07:32;95768.34;;;7.51;100.00
16451;BME280;12243;42.708;23.310;2022-10-16T04:09:59;95771.13;;;7.62;100.00
16451;BME280;12243;42.708;23.310;2022-10-16T04:12:27;95770.19;;;7.49;100.00
16451;BME280;12243;42.708;23.310;2022-10-16T04:14:54;95762.88;;;7.42;100.00
16451;BME280;12243;42.708;23.310;2022-10-16T04:17:21;95766.66;;;7.36;100.00
16451;BME280;12243;42.708;23.310;2022-10-16T04:19:47;95767.66;;;7.33;100.00
16451;BME280;12243;42.708;23.310;2022-10-16T04:22:14;95772.94;;;7.32;100.00
16451;BME280;12243;42.708;23.310;2022-10-16T04:24:41;95764.44;;;7.30;100.00
16451;BME280;12243;42.708;23.310;2022-10-16T04:27:08;95769.25;;;7.36;100.00
16451;BME280;12243;42.708;23.310;2022-10-16T04:29:36;95772.69;;;7.36;100.00
16451;BME280;12243;42.708;23.310;2022-10-16T04:32:03;95773.59;;;7.35;100.00
16451;BME280;12243;42.708;23.310;2022-10-16T04:34:30;95774.03;;;7.28;100.00
16451;BME280;12243;42.708;23.310;2022-10-16T04:36:57;95779.97;;;7.30;100.00
16451;BME280;12243;42.708;23.310;2022-10-16T04:39:23;95778.50;;;7.26;100.00
16451;BME280;12243;42.708;23.310;2022-10-16T04:41:50;95783.50;;;7.29;100.00
16451;BME280;12243;42.708;23.310;2022-10-16T04:44:17;95785.16;;;7.30;100.00
16451;BME280;12243;42.708;23.310;2022-10-16T04:46:45;95779.81;;;7.33;100.00
16451;BME280;12243;42.708;23.310;2022-10-16T04:49:12;95791.34;;;7.27;100.00
16451;BME280;12243;42.708;23.310;2022-10-16T04:51:39;95790.50;;;7.27;100.00
16451;BME280;12243;42.708;23.310;2022-10-16T04:54:06;95796.16;;;7.19;100.00
16451;BME280;12243;42.708;23.310;2022-10-16T04:56:32;95796.97;;;7.20;100.00
16451;BME280;12243;42.708;23.310;2022-10-16T04:59:05;95799.75;;;7.16;100.00
16451;BME280;12243;42.708;23.310;2022-10-16T05:01:32;95804.56;;;7.23;100.00
16451;BME280;12243;42.708;23.310;2022-10-16T05:04:00;95813.72;;;7.28;100.00
16451;BME280;12243;42.708;23.310;2022-10-16T05:06:27;95810.72;;;7.36;100.00
16451;BME280;12243;42.708;23.310;2022-10-16T05:08:54;95810.34;;;7.42;100.00
16451;BME280;12243;42.708;23.310;2022-10-16T05:11:21;95811.00;;;7.60;100.00
16451;BME280;12243;42.708;23.310;2022-10-16T05:13:47;95815.38;;;7.59;100.00
16451;BME280;12243;42.708;23.310;2022-10-16T05:16:15;95815.28;;;7.61;100.00
16451;BME280;12243;42.708;23.310;2022-10-16T05:18:41;95822.63;;;7.69;100.00
16451;BME280;12243;42.708;23.310;2022-10-16T05:21:10;95821.03;;;7.80;100.00
16451;BME280;12243;42.708;23.310;2022-10-16T05:23:36;95812.44;;;7.94;100.00
16451;BME280;12243;42.708;23.310;2022-10-16T05:26:04;95818.91;;;8.01;100.00
16451;BME280;12243;42.708;23.310;2022-10-16T05:28:30;95823.75;;;8.07;100.00
16451;BME280;12243;42.708;23.310;2022-10-16T05:30:57;95827.44;;;8.18;100.00
16451;BME280;12243;42.708;23.310;2022-10-16T05:33:25;95827.81;;;8.26;100.00
16451;BME280;12243;42.708;23.310;2022-10-16T05:35:52;95832.44;;;8.35;100.00
16451;BME280;12243;42.708;23.310;2022-10-16T05:38:20;95828.91;;;8.50;100.00
16451;BME280;12243;42.708;23.310;2022-10-16T05:40:51;95824.19;;;8.57;100.00
16451;BME280;12243;42.708;23.310;2022-10-16T05:43:18;95829.28;;;8.58;99.89
16451;BME280;12243;42.708;23.310;2022-10-16T05:45:53;95824.16;;;8.71;100.00
16451;BME280;12243;42.708;23.310;2022-10-16T05:48:20;95838.59;;;8.90;98.59
16451;BME280;12243;42.708;23.310;2022-10-16T05:50:47;95835.94;;;9.04;97.15
16451;BME280;12243;42.708;23.310;2022-10-16T05:53:14;95838.66;;;9.15;96.51
16451;BME280;12243;42.708;23.310;2022-10-16T05:55:43;95841.41;;;9.26;95.33
16451;BME280;12243;42.708;23.310;2022-10-16T05:58:09;95840.56;;;9.26;95.09
16451;BME280;12243;42.708;23.310;2022-10-16T06:00:36;95857.75;;;9.41;93.62
16451;BME280;12243;42.708;23.310;2022-10-16T06:03:03;95852.47;;;9.43;94.11
16451;BME280;12243;42.708;23.310;2022-10-16T06:05:32;95863.31;;;9.49;92.72
16451;BME280;12243;42.708;23.310;2022-10-16T06:07:59;95862.16;;;9.53;92.75
16451;BME280;12243;42.708;23.310;2022-10-16T06:10:25;95868.75;;;9.59;93.18
16451;BME280;12243;42.708;23.310;2022-10-16T06:12:55;95868.53;;;9.75;91.75
16451;BME280;12243;42.708;23.310;2022-10-16T06:15:22;95874.81;;;9.85;91.06
16451;BME280;12243;42.708;23.310;2022-10-16T06:17:49;95869.59;;;9.85;91.27
16451;BME280;12243;42.708;23.310;2022-10-16T06:20:16;95871.69;;;9.93;91.44
16451;BME280;12243;42.708;23.310;2022-10-16T06:22:42;95881.47;;;9.89;90.58
16451;BME280;12243;42.708;23.310;2022-10-16T06:25:09;95879.09;;;9.99;90.62
16451;BME280;12243;42.708;23.310;2022-10-16T06:27:39;95879.19;;;10.10;89.98
16451;BME280;12243;42.708;23.310;2022-10-16T06:30:08;95884.50;;;10.21;89.33
16451;BME280;12243;42.708;23.310;2022-10-16T06:32:35;95881.63;;;10.26;88.72
16451;BME280;12243;42.708;23.310;2022-10-16T06:35:02;95878.56;;;10.45;89.41
16451;BME280;12243;42.708;23.310;2022-10-16T06:37:29;95884.59;;;10.58;88.63
16451;BME280;12243;42.708;23.310;2022-10-16T06:39:56;95897.09;;;10.66;87.56
16451;BME280;12243;42.708;23.310;2022-10-16T06:42:23;95889.59;;;10.74;87.42
16451;BME280;12243;42.708;23.310;2022-10-16T06:44:50;95893.13;;;10.73;87.18
16451;BME280;12243;42.708;23.310;2022-10-16T06:47:18;95898.53;;;10.83;86.52
16451;BME280;12243;42.708;23.310;2022-10-16T06:49:45;95897.06;;;10.91;86.19
16451;BME280;12243;42.708;23.310;2022-10-16T06:52:12;95904.97;;;10.90;86.33
16451;BME280;12243;42.708;23.310;2022-10-16T06:54:38;95915.59;;;11.00;85.93
16451;BME280;12243;42.708;23.310;2022-10-16T06:57:05;95909.41;;;11.01;85.12
16451;BME280;12243;42.708;23.310;2022-10-16T06:59:33;95916.91;;;11.05;85.65
16451;BME280;12243;42.708;23.310;2022-10-16T07:02:00;95915.31;;;11.15;85.16
16451;BME280;12243;42.708;23.310;2022-10-16T07:04:28;95920.31;;;11.18;84.49
16451;BME280;12243;42.708;23.310;2022-10-16T07:06:55;95912.94;;;11.36;83.91
16451;BME280;12243;42.708;23.310;2022-10-16T07:09:21;95911.63;;;11.31;85.08
16451;BME280;12243;42.708;23.310;2022-10-16T07:11:48;95910.28;;;11.49;83.43
16451;BME280;12243;42.708;23.310;2022-10-16T07:14:17;95923.84;;;11.54;83.28
16451;BME280;12243;42.708;23.310;2022-10-16T07:16:44;95923.28;;;11.62;83.21
16451;BME280;12243;42.708;23.310;2022-10-16T07:19:11;95924.50;;;11.69;82.94
16451;BME280;12243;42.708;23.310;2022-10-16T07:21:41;95917.50;;;11.94;81.64
16451;BME280;12243;42.708;23.310;2022-10-16T07:24:11;95928.19;;;12.13;81.08
16451;BME280;12243;42.708;23.310;2022-10-16T07:26:39;95918.97;;;12.20;79.92
16451;BME280;12243;42.708;23.310;2022-10-16T07:29:07;95922.53;;;12.19;80.80
16451;BME280;12243;42.708;23.310;2022-10-16T07:31:35;95927.44;;;12.35;79.80
16451;BME280;12243;42.708;23.310;2022-10-16T07:34:03;95929.00;;;12.49;79.61
16451;BME280;12243;42.708;23.310;2022-10-16T07:36:30;95930.19;;;12.56;78.78
16451;BME280;12243;42.708;23.310;2022-10-16T07:38:58;95928.41;;;12.45;79.40
16451;BME280;12243;42.708;23.310;2022-10-16T07:41:25;95923.28;;;12.55;79.33
16451;BME280;12243;42.708;23.310;2022-10-16T07:43:53;95926.88;;;12.76;78.81
16451;BME280;12243;42.708;23.310;2022-10-16T07:46:21;95922.34;;;12.90;78.17
16451;BME280;12243;42.708;23.310;2022-10-16T07:48:48;95928.50;;;13.00;77.93
16451;BME280;12243;42.708;23.310;2022-10-16T07:51:17;95925.19;;;13.09;77.05
16451;BME280;12243;42.708;23.310;2022-10-16T07:53:44;95931.59;;;13.16;76.66
16451;BME280;12243;42.708;23.310;2022-10-16T07:56:12;95933.00;;;13.31;75.72
16451;BME280;12243;42.708;23.310;2022-10-16T07:58:40;95933.72;;;13.33;74.92
16451;BME280;12243;42.708;23.310;2022-10-16T08:01:08;95936.44;;;13.43;75.21
16451;BME280;12243;42.708;23.310;2022-10-16T08:03:35;95934.28;;;13.48;75.06
16451;BME280;12243;42.708;23.310;2022-10-16T08:06:03;95941.84;;;13.63;74.09
16451;BME280;12243;42.708;23.310;2022-10-16T08:08:30;95933.59;;;13.78;74.46
16451;BME280;12243;42.708;23.310;2022-10-16T08:10:57;95927.56;;;13.99;73.50
16451;BME280;12243;42.708;23.310;2022-10-16T08:13:25;95930.13;;;14.10;73.67
16451;BME280;12243;42.708;23.310;2022-10-16T08:15:53;95925.28;;;14.26;73.18
16451;BME280;12243;42.708;23.310;2022-10-16T08:18:20;95931.84;;;14.42;72.52
16451;BME280;12243;42.708;23.310;2022-10-16T08:20:47;95924.19;;;14.50;71.20
16451;BME280;12243;42.708;23.310;2022-10-16T08:23:14;95920.22;;;14.56;71.02
16451;BME280;12243;42.708;23.310;2022-10-16T08:25:42;95920.13;;;14.67;70.40
16451;BME280;12243;42.708;23.310;2022-10-16T08:28:10;95925.50;;;14.65;70.95
16451;BME280;12243;42.708;23.310;2022-10-16T08:30:39;95920.94;;;14.67;70.65
16451;BME280;12243;42.708;23.310;2022-10-16T08:33:06;95919.22;;;14.77;69.88
16451;BME280;12243;42.708;23.310;2022-10-16T08:35:33;95920.34;;;14.85;69.38
16451;BME280;12243;42.708;23.310;2022-10-16T08:38:00;95910.88;;;14.93;69.35
16451;BME280;12243;42.708;23.310;2022-10-16T08:40:30;95917.69;;;15.15;68.05
16451;BME280;12243;42.708;23.310;2022-10-16T08:43:28;95919.19;;;15.08;66.70
16451;BME280;12243;42.708;23.310;2022-10-16T08:46:21;95915.44;;;15.01;68.63
16451;BME280;12243;42.708;23.310;2022-10-16T08:48:53;95914.91;;;15.07;67.69
16451;BME280;12243;42.708;23.310;2022-10-16T08:51:23;95919.91;;;15.20;66.79
16451;BME280;12243;42.708;23.310;2022-10-16T08:53:53;95921.03;;;15.37;66.60
16451;BME280;12243;42.708;23.310;2022-10-16T08:56:21;95921.34;;;15.53;65.35
16451;BME280;12243;42.708;23.310;2022-10-16T08:58:49;95922.63;;;15.68;64.99
16451;BME280;12243;42.708;23.310;2022-10-16T09:01:19;95922.09;;;15.84;64.43
16451;BME280;12243;42.708;23.310;2022-10-16T09:03:58;95922.63;;;16.07;61.84
16451;BME280;12243;42.708;23.310;2022-10-16T09:06:35;95922.25;;;16.02;61.45
16451;BME280;12243;42.708;23.310;2022-10-16T09:09:26;95930.53;;;16.07;60.39
16451;BME280;12243;42.708;23.310;2022-10-16T09:12:02;95921.13;;;16.14;60.07
16451;BME280;12243;42.708;23.310;2022-10-16T09:14:43;95920.00;;;16.27;59.00
16451;BME280;12243;42.708;23.310;2022-10-16T09:17:25;95917.34;;;16.36;57.36
16451;BME280;12243;42.708;23.310;2022-10-16T09:19:56;95919.28;;;16.44;58.11
16451;BME280;12243;42.708;23.310;2022-10-16T09:22:27;95914.09;;;16.62;56.99
16451;BME280;12243;42.708;23.310;2022-10-16T09:24:55;95911.34;;;16.63;56.54
16451;BME280;12243;42.708;23.310;2022-10-16T09:27:26;95921.72;;;16.75;56.40
16451;BME280;12243;42.708;23.310;2022-10-16T09:29:53;95919.47;;;16.80;55.33
16451;BME280;12243;42.708;23.310;2022-10-16T09:32:22;95918.75;;;16.87;55.39
16451;BME280;12243;42.708;23.310;2022-10-16T09:34:50;95908.41;;;17.13;53.91
16451;BME280;12243;42.708;23.310;2022-10-16T09:37:21;95914.47;;;17.14;53.18
16451;BME280;12243;42.708;23.310;2022-10-16T09:39:50;95912.28;;;17.09;53.61
16451;BME280;12243;42.708;23.310;2022-10-16T09:42:18;95913.66;;;17.13;54.34
16451;BME280;12243;42.708;23.310;2022-10-16T09:44:50;95921.88;;;17.28;54.05
16451;BME280;12243;42.708;23.310;2022-10-16T09:47:22;95910.88;;;17.15;53.39
16451;BME280;12243;42.708;23.310;2022-10-16T09:49:51;95900.28;;;17.25;54.04
16451;BME280;12243;42.708;23.310;2022-10-16T09:52:19;95902.28;;;17.41;53.42
16451;BME280;12243;42.708;23.310;2022-10-16T09:54:51;95901.84;;;17.45;53.04
16451;BME280;12243;42.708;23.310;2022-10-16T09:57:18;95888.72;;;17.53;52.10
16451;BME280;12243;42.708;23.310;2022-10-16T09:59:46;95897.78;;;17.51;52.72
16451;BME280;12243;42.708;23.310;2022-10-16T10:02:15;95899.28;;;17.53;52.07
16451;BME280;12243;42.708;23.310;2022-10-16T10:04:49;95898.91;;;17.66;52.63
16451;BME280;12243;42.708;23.310;2022-10-16T10:07:18;95893.66;;;17.66;52.98
16451;BME280;12243;42.708;23.310;2022-10-16T10:09:46;95886.06;;;17.81;52.72
16451;BME280;12243;42.708;23.310;2022-10-16T10:12:21;95879.97;;;17.80;52.81
16451;BME280;12243;42.708;23.310;2022-10-16T10:14:50;95885.22;;;17.62;53.81
16451;BME280;12243;42.708;23.310;2022-10-16T10:17:19;95891.31;;;17.63;53.32
16451;BME280;12243;42.708;23.310;2022-10-16T10:19:50;95889.66;;;17.44;54.28
16451;BME280;12243;42.708;23.310;2022-10-16T10:22:30;95882.28;;;17.48;54.41
16451;BME280;12243;42.708;23.310;2022-10-16T10:25:41;95884.28;;;17.36;54.55
16451;BME280;12243;42.708;23.310;2022-10-16T10:28:28;95883.09;;;17.66;53.53
16451;BME280;12243;42.708;23.310;2022-10-16T10:31:03;95877.50;;;17.79;53.47
16451;BME280;12243;42.708;23.310;2022-10-16T10:33:39;95870.25;;;17.81;53.43
16451;BME280;12243;42.708;23.310;2022-10-16T10:36:18;95871.13;;;18.07;51.87
16451;BME280;12243;42.708;23.310;2022-10-16T10:38:51;95874.75;;;18.06;52.21
16451;BME280;12243;42.708;23.310;2022-10-16T10:41:40;95864.56;;;18.12;52.22
16451;BME280;12243;42.708;23.310;2022-10-16T10:44:18;95858.69;;;18.18;51.17
16451;BME280;12243;42.708;23.310;2022-10-16T10:46:50;95857.22;;;17.97;51.60
16451;BME280;12243;42.708;23.310;2022-10-16T10:49:39;95859.84;;;17.97;51.88
16451;BME280;12243;42.708;23.310;2022-10-16T10:55:19;95849.41;;;18.31;52.19
16451;BME280;12243;42.708;23.310;2022-10-16T11:00:55;95846.59;;;18.33;51.81
16451;BME280;12243;42.708;23.310;2022-10-16T11:03:34;95836.13;;;18.49;51.17
16451;BME280;12243;42.708;23.310;2022-10-16T11:06:10;95840.78;;;18.55;51.62
16451;BME280;12243;42.708;23.310;2022-10-16T11:08:43;95842.09;;;18.51;52.07
16451;BME280;12243;42.708;23.310;2022-10-16T11:11:17;95837.75;;;18.42;51.28
16451;BME280;12243;42.708;23.310;2022-10-16T11:13:53;95830.84;;;18.41;51.67
16451;BME280;12243;42.708;23.310;2022-10-16T11:16:27;95831.84;;;18.48;51.66
16451;BME280;12243;42.708;23.310;2022-10-16T11:18:58;95834.41;;;18.66;51.42
16451;BME280;12243;42.708;23.310;2022-10-16T11:21:26;95827.84;;;18.70;51.24
16451;BME280;12243;42.708;23.310;2022-10-16T11:24:00;95823.44;;;18.79;50.79
16451;BME280;12243;42.708;23.310;2022-10-16T11:26:33;95823.78;;;18.76;51.02
16451;BME280;12243;42.708;23.310;2022-10-16T11:29:04;95813.75;;;18.96;50.54
16451;BME280;12243;42.708;23.310;2022-10-16T11:31:36;95827.13;;;18.94;50.09
16451;BME280;12243;42.708;23.310;2022-10-16T11:34:08;95825.34;;;18.69;50.41
16451;BME280;12243;42.708;23.310;2022-10-16T11:36:44;95822.69;;;18.69;50.48
16451;BME280;12243;42.708;23.310;2022-10-16T11:39:20;95818.09;;;18.71;50.11
16451;BME280;12243;42.708;23.310;2022-10-16T11:41:49;95825.72;;;18.74;49.92
16451;BME280;12243;42.708;23.310;2022-10-16T11:44:28;95820.66;;;18.80;49.24
16451;BME280;12243;42.708;23.310;2022-10-16T11:47:09;95825.81;;;18.98;48.32
16451;BME280;12243;42.708;23.310;2022-10-16T11:49:40;95816.78;;;19.17;48.00
16451;BME280;12243;42.708;23.310;2022-10-16T11:52:12;95823.88;;;19.09;48.08
16451;BME280;12243;42.708;23.310;2022-10-16T11:54:47;95821.88;;;19.02;48.19
16451;BME280;12243;42.708;23.310;2022-10-16T11:57:19;95827.66;;;19.06;47.80
16451;BME280;12243;42.708;23.310;2022-10-16T11:59:50;95817.47;;;19.19;46.62
16451;BME280;12243;42.708;23.310;2022-10-16T12:02:40;95823.59;;;19.28;46.34
16451;BME280;12243;42.708;23.310;2022-10-16T12:05:21;95824.94;;;19.40;45.06
16451;BME280;12243;42.708;23.310;2022-10-16T12:08:01;95820.47;;;19.33;45.08
16451;BME280;12243;42.708;23.310;2022-10-16T12:10:32;95818.97;;;19.22;44.67
16451;BME280;12243;42.708;23.310;2022-10-16T12:13:03;95821.88;;;19.11;44.83
16451;BME280;12243;42.708;23.310;2022-10-16T12:15:32;95819.03;;;18.96;45.81
16451;BME280;12243;42.708;23.310;2022-10-16T12:17:59;95811.69;;;19.08;46.06
16451;BME280;12243;42.708;23.310;2022-10-16T12:20:29;95811.31;;;19.11;45.68
16451;BME280;12243;42.708;23.310;2022-10-16T12:22:59;95814.31;;;19.16;45.30
16451;BME280;12243;42.708;23.310;2022-10-16T12:25:29;95818.47;;;19.35;45.22
16451;BME280;12243;42.708;23.310;2022-10-16T12:28:06;95812.06;;;19.62;44.60
16451;BME280;12243;42.708;23.310;2022-10-16T12:30:52;95821.66;;;19.46;44.26
16451;BME280;12243;42.708;23.310;2022-10-16T12:33:21;95816.34;;;19.30;44.38
16451;BME280;12243;42.708;23.310;2022-10-16T12:35:50;95814.06;;;19.35;43.78
16451;BME280;12243;42.708;23.310;2022-10-16T12:38:19;95819.34;;;19.51;42.56
16451;BME280;12243;42.708;23.310;2022-10-16T12:40:54;95817.00;;;19.40;41.77
16451;BME280;12243;42.708;23.310;2022-10-16T12:43:37;95816.03;;;19.49;42.01
16451;BME280;12243;42.708;23.310;2022-10-16T12:46:20;95814.06;;;19.43;43.16
16451;BME280;12243;42.708;23.310;2022-10-16T12:48:48;95816.38;;;19.46;42.83
16451;BME280;12243;42.708;23.310;2022-10-16T12:51:24;95823.94;;;19.41;42.16
16451;BME280;12243;42.708;23.310;2022-10-16T12:53:58;95823.25;;;19.31;42.61
16451;BME280;12243;42.708;23.310;2022-10-16T12:56:35;95821.63;;;19.38;42.60
16451;BME280;12243;42.708;23.310;2022-10-16T12:59:14;95822.94;;;19.34;42.17
16451;BME280;12243;42.708;23.310;2022-10-16T13:01:54;95826.91;;;19.38;41.52
16451;BME280;12243;42.708;23.310;2022-10-16T13:07:33;95823.47;;;19.46;41.66
16451;BME280;12243;42.708;23.310;2022-10-16T13:10:15;95823.75;;;19.35;41.65
16451;BME280;12243;42.708;23.310;2022-10-16T13:15:55;95830.06;;;19.50;40.74
16451;BME280;12243;42.708;23.310;2022-10-16T13:18:31;95821.34;;;19.49;41.76